Airfield :
LOGIN :

Register | Disclaimer

   EN    FR    IT 

 










Legend :    VFR   Marginal VFR   IFR   Intensive IFR   Very Intensive IFR
Visi :
Ceiling :
>= 8 km
>= 3000ft
5 to 8 km
1000 to 3000 ft
1500m to 5 km
500 to 1000 ft
800 to 1500m
200 to 500 ft
< 800m
< 200 ft
Symbols :   Thunderstorms  Fog  Heavy snow  Heavy precipitations  Wind > 20 kt
SIGMETs :     Misc.  Thunderstorms  Icing  Turbulence  Mountain Waves  Volcanic Ashes







- Airport Elevation : 545 ft
- IATA code : PZY


LZPP - Piešťany

CURRENT METAR :
  • 172100Z AUTO VRB01KT 6000 OVC087/// 00/M01 Q1008

EXPIRED METARs :
  • 172030Z AUTO 06003KT 020V090 3700 BR OVC075/// 01/M00 Q1008
  • 172000Z 32005KT 5000 BR NSC M00/M01 Q1008
  • 171930Z 08002KT 5000 BR NSC M00/M01 Q1008
  • 171900Z 01003KT 5000 BR NSC M00/M01 Q1008
  • 171830Z VRB02KT 5000 BR NSC 00/M01 Q1008

TAF TAF LZPP
Valid from the 17 at 18:00 until the 18 at 03:00 UTC


171700Z 1718/1803 VRB02KT 5000 BR SCT045
TEMPO 1718/1721 2500 BR NSC
TEMPO 1722/1803 4000 -RA SCT045 OVC080
No reported NOTAMs for that airfield.



MET'MAP, your aeronautical weather chart ! - Copyright ORBIFLY December 2007 - Disclaimer

ORBIFLY MET'MAP TEAM :

Programming & Development : Alexandra Zaïnal
Concept & Development : Baudouin d'Aumeries
Co-Development & Prog : Marc-Olivier Méhu
Technical & hardware support : Manuel Goepfert

Contact : metmap@orbifly.com




SOURCES & CREDITS :

   NOAA